sensor_id;sensor_type;location;lat;lon;timestamp;pressure;altitude;pressure_sealevel;temperature;humidity
59170;BME280;52474;52.236;5.114;2022-10-16T00:02:00;100940.28;;;12.42;100.00
59170;BME280;52474;52.236;5.114;2022-10-16T00:04:29;100950.22;;;12.40;100.00
59170;BME280;52474;52.236;5.114;2022-10-16T00:06:54;100935.25;;;12.39;100.00
59170;BME280;52474;52.236;5.114;2022-10-16T00:09:20;100937.50;;;12.34;100.00
59170;BME280;52474;52.236;5.114;2022-10-16T00:11:46;100923.38;;;12.24;100.00
59170;BME280;52474;52.236;5.114;2022-10-16T00:14:14;100948.25;;;12.33;100.00
59170;BME280;52474;52.236;5.114;2022-10-16T00:16:41;100938.31;;;12.25;100.00
59170;BME280;52474;52.236;5.114;2022-10-16T00:19:07;100937.19;;;12.37;100.00
59170;BME280;52474;52.236;5.114;2022-10-16T00:21:33;100929.53;;;12.34;100.00
59170;BME280;52474;52.236;5.114;2022-10-16T00:24:17;100921.69;;;12.42;100.00
59170;BME280;52474;52.236;5.114;2022-10-16T00:26:43;100925.88;;;12.45;100.00
59170;BME280;52474;52.236;5.114;2022-10-16T00:29:09;100911.75;;;12.44;100.00
59170;BME280;52474;52.236;5.114;2022-10-16T00:31:35;100922.66;;;12.51;100.00
59170;BME280;52474;52.236;5.114;2022-10-16T00:34:01;100913.28;;;12.47;100.00
59170;BME280;52474;52.236;5.114;2022-10-16T00:36:27;100921.66;;;12.52;100.00
59170;BME280;52474;52.236;5.114;2022-10-16T00:38:54;100920.41;;;12.56;100.00
59170;BME280;52474;52.236;5.114;2022-10-16T00:41:22;100915.66;;;12.50;100.00
59170;BME280;52474;52.236;5.114;2022-10-16T00:43:56;100907.56;;;12.42;100.00
59170;BME280;52474;52.236;5.114;2022-10-16T00:46:38;100912.88;;;12.42;100.00
59170;BME280;52474;52.236;5.114;2022-10-16T00:49:13;100932.72;;;12.48;100.00
59170;BME280;52474;52.236;5.114;2022-10-16T00:51:51;100931.88;;;12.47;100.00
59170;BME280;52474;52.236;5.114;2022-10-16T00:54:23;100897.38;;;12.37;100.00
59170;BME280;52474;52.236;5.114;2022-10-16T00:56:50;100930.75;;;12.50;100.00
59170;BME280;52474;52.236;5.114;2022-10-16T00:59:26;100930.50;;;12.43;100.00
59170;BME280;52474;52.236;5.114;2022-10-16T01:01:53;100935.38;;;12.48;100.00
59170;BME280;52474;52.236;5.114;2022-10-16T01:04:21;100925.03;;;12.54;100.00
59170;BME280;52474;52.236;5.114;2022-10-16T01:10:07;100930.22;;;12.56;100.00
59170;BME280;52474;52.236;5.114;2022-10-16T01:12:46;100902.66;;;12.47;100.00
59170;BME280;52474;52.236;5.114;2022-10-16T01:17:56;100903.06;;;12.52;100.00
59170;BME280;52474;52.236;5.114;2022-10-16T01:20:30;100919.56;;;12.65;100.00
59170;BME280;52474;52.236;5.114;2022-10-16T01:28:26;100890.78;;;12.61;100.00
59170;BME280;52474;52.236;5.114;2022-10-16T01:30:58;100893.25;;;12.62;100.00
59170;BME280;52474;52.236;5.114;2022-10-16T01:33:42;100915.91;;;12.76;100.00
59170;BME280;52474;52.236;5.114;2022-10-16T01:36:13;100927.53;;;12.75;100.00
59170;BME280;52474;52.236;5.114;2022-10-16T01:38:40;100927.78;;;12.72;100.00
59170;BME280;52474;52.236;5.114;2022-10-16T01:41:18;100907.25;;;12.64;100.00
59170;BME280;52474;52.236;5.114;2022-10-16T01:43:50;100921.09;;;12.78;100.00
59170;BME280;52474;52.236;5.114;2022-10-16T01:46:20;100923.19;;;12.64;100.00
59170;BME280;52474;52.236;5.114;2022-10-16T01:48:48;100907.44;;;12.53;100.00
59170;BME280;52474;52.236;5.114;2022-10-16T01:51:17;100920.81;;;12.61;100.00
59170;BME280;52474;52.236;5.114;2022-10-16T01:53:48;100934.94;;;12.62;100.00
59170;BME280;52474;52.236;5.114;2022-10-16T01:56:17;100938.03;;;12.57;100.00
59170;BME280;52474;52.236;5.114;2022-10-16T01:58:48;100946.41;;;12.53;100.00
59170;BME280;52474;52.236;5.114;2022-10-16T02:01:16;100933.16;;;12.43;100.00
59170;BME280;52474;52.236;5.114;2022-10-16T02:03:45;100950.47;;;12.47;100.00
59170;BME280;52474;52.236;5.114;2022-10-16T02:06:14;100957.19;;;12.41;100.00
59170;BME280;52474;52.236;5.114;2022-10-16T02:08:40;100961.41;;;12.44;100.00
59170;BME280;52474;52.236;5.114;2022-10-16T02:11:10;100956.66;;;12.28;100.00
59170;BME280;52474;52.236;5.114;2022-10-16T02:13:45;100957.19;;;12.22;100.00
59170;BME280;52474;52.236;5.114;2022-10-16T02:16:12;100960.97;;;12.19;100.00
59170;BME280;52474;52.236;5.114;2022-10-16T02:18:40;100957.06;;;12.14;100.00
59170;BME280;52474;52.236;5.114;2022-10-16T02:21:18;100948.66;;;11.99;100.00
59170;BME280;52474;52.236;5.114;2022-10-16T02:26:16;100962.59;;;12.01;100.00
59170;BME280;52474;52.236;5.114;2022-10-16T02:28:49;100960.63;;;11.93;100.00
59170;BME280;52474;52.236;5.114;2022-10-16T02:31:22;100984.97;;;12.08;100.00
59170;BME280;52474;52.236;5.114;2022-10-16T02:33:52;100950.59;;;11.87;100.00
59170;BME280;52474;52.236;5.114;2022-10-16T02:36:20;100981.38;;;12.09;100.00
59170;BME280;52474;52.236;5.114;2022-10-16T02:38:46;100983.03;;;12.10;100.00
59170;BME280;52474;52.236;5.114;2022-10-16T02:41:13;100974.50;;;11.97;100.00
59170;BME280;52474;52.236;5.114;2022-10-16T02:43:39;100967.78;;;11.93;100.00
59170;BME280;52474;52.236;5.114;2022-10-16T02:46:05;100989.44;;;12.08;100.00
59170;BME280;52474;52.236;5.114;2022-10-16T02:48:31;100990.03;;;12.11;100.00
59170;BME280;52474;52.236;5.114;2022-10-16T02:50:57;100990.88;;;12.12;100.00
59170;BME280;52474;52.236;5.114;2022-10-16T02:53:22;100983.72;;;12.12;100.00
59170;BME280;52474;52.236;5.114;2022-10-16T02:55:48;100987.81;;;12.16;100.00
59170;BME280;52474;52.236;5.114;2022-10-16T02:58:14;100973.53;;;12.08;100.00
59170;BME280;52474;52.236;5.114;2022-10-16T03:00:39;100988.22;;;12.21;100.00
59170;BME280;52474;52.236;5.114;2022-10-16T03:03:05;100990.03;;;12.21;100.00
59170;BME280;52474;52.236;5.114;2022-10-16T03:05:31;100990.72;;;12.13;100.00
59170;BME280;52474;52.236;5.114;2022-10-16T03:07:56;100972.69;;;12.07;100.00
59170;BME280;52474;52.236;5.114;2022-10-16T03:10:25;100981.22;;;12.20;100.00
59170;BME280;52474;52.236;5.114;2022-10-16T03:12:51;100979.97;;;12.15;100.00
59170;BME280;52474;52.236;5.114;2022-10-16T03:15:16;100968.34;;;11.96;100.00
59170;BME280;52474;52.236;5.114;2022-10-16T03:17:42;100975.31;;;11.97;100.00
59170;BME280;52474;52.236;5.114;2022-10-16T03:20:09;100975.72;;;11.93;100.00
59170;BME280;52474;52.236;5.114;2022-10-16T03:22:35;100976.72;;;11.92;100.00
59170;BME280;52474;52.236;5.114;2022-10-16T03:25:00;100991.22;;;11.88;100.00
59170;BME280;52474;52.236;5.114;2022-10-16T03:27:26;100995.31;;;11.92;100.00
59170;BME280;52474;52.236;5.114;2022-10-16T03:29:52;100977.22;;;11.86;100.00
59170;BME280;52474;52.236;5.114;2022-10-16T03:32:18;101004.41;;;11.99;100.00
59170;BME280;52474;52.236;5.114;2022-10-16T03:34:45;101003.41;;;12.00;100.00
59170;BME280;52474;52.236;5.114;2022-10-16T03:37:11;100989.72;;;11.95;100.00
59170;BME280;52474;52.236;5.114;2022-10-16T03:39:37;101006.34;;;11.97;100.00
59170;BME280;52474;52.236;5.114;2022-10-16T03:42:03;100997.94;;;11.92;100.00
59170;BME280;52474;52.236;5.114;2022-10-16T03:44:29;101012.50;;;11.97;100.00
59170;BME280;52474;52.236;5.114;2022-10-16T03:46:54;101012.91;;;12.02;100.00
59170;BME280;52474;52.236;5.114;2022-10-16T03:49:20;101015.16;;;12.07;100.00
59170;BME280;52474;52.236;5.114;2022-10-16T03:51:45;101011.28;;;12.11;100.00
59170;BME280;52474;52.236;5.114;2022-10-16T03:54:11;100999.66;;;12.02;100.00
59170;BME280;52474;52.236;5.114;2022-10-16T03:56:37;101000.31;;;11.95;100.00
59170;BME280;52474;52.236;5.114;2022-10-16T03:59:03;101020.59;;;12.06;100.00
59170;BME280;52474;52.236;5.114;2022-10-16T04:01:28;101015.28;;;12.06;100.00
59170;BME280;52474;52.236;5.114;2022-10-16T04:03:54;100993.34;;;11.94;100.00
59170;BME280;52474;52.236;5.114;2022-10-16T04:06:20;101016.16;;;12.06;100.00
59170;BME280;52474;52.236;5.114;2022-10-16T04:08:45;101021.03;;;12.11;100.00
59170;BME280;52474;52.236;5.114;2022-10-16T04:11:11;101024.25;;;12.05;100.00
59170;BME280;52474;52.236;5.114;2022-10-16T04:13:37;101009.28;;;11.94;100.00
59170;BME280;52474;52.236;5.114;2022-10-16T04:16:03;101031.81;;;12.09;100.00
59170;BME280;52474;52.236;5.114;2022-10-16T04:18:28;101036.84;;;12.12;100.00
59170;BME280;52474;52.236;5.114;2022-10-16T04:20:54;101022.00;;;12.00;100.00
59170;BME280;52474;52.236;5.114;2022-10-16T04:23:20;101056.41;;;12.11;100.00
59170;BME280;52474;52.236;5.114;2022-10-16T04:25:48;101058.19;;;12.11;100.00
59170;BME280;52474;52.236;5.114;2022-10-16T04:28:14;101057.50;;;12.09;100.00
59170;BME280;52474;52.236;5.114;2022-10-16T04:30:39;101053.84;;;12.00;100.00
59170;BME280;52474;52.236;5.114;2022-10-16T04:33:05;101074.09;;;12.01;100.00
59170;BME280;52474;52.236;5.114;2022-10-16T04:35:31;101050.69;;;11.85;100.00
59170;BME280;52474;52.236;5.114;2022-10-16T04:37:57;101064.31;;;11.92;100.00
59170;BME280;52474;52.236;5.114;2022-10-16T04:40:23;101058.00;;;11.93;100.00
59170;BME280;52474;52.236;5.114;2022-10-16T04:42:49;101081.81;;;12.04;100.00
59170;BME280;52474;52.236;5.114;2022-10-16T04:45:15;101081.09;;;12.02;100.00
59170;BME280;52474;52.236;5.114;2022-10-16T04:47:40;101087.38;;;12.01;100.00
59170;BME280;52474;52.236;5.114;2022-10-16T04:50:07;101077.13;;;11.87;100.00
59170;BME280;52474;52.236;5.114;2022-10-16T04:52:33;101081.91;;;11.93;100.00
59170;BME280;52474;52.236;5.114;2022-10-16T04:54:59;101066.53;;;11.87;100.00
59170;BME280;52474;52.236;5.114;2022-10-16T04:57:28;101074.69;;;11.83;100.00
59170;BME280;52474;52.236;5.114;2022-10-16T04:59:54;101100.91;;;11.98;100.00
59170;BME280;52474;52.236;5.114;2022-10-16T05:02:20;101089.31;;;11.89;100.00
59170;BME280;52474;52.236;5.114;2022-10-16T05:04:46;101112.69;;;12.05;100.00
59170;BME280;52474;52.236;5.114;2022-10-16T05:07:11;101120.97;;;12.12;100.00
59170;BME280;52474;52.236;5.114;2022-10-16T05:09:37;101097.03;;;12.02;100.00
59170;BME280;52474;52.236;5.114;2022-10-16T05:12:03;101130.97;;;12.08;100.00
59170;BME280;52474;52.236;5.114;2022-10-16T05:14:29;101117.94;;;11.95;100.00
59170;BME280;52474;52.236;5.114;2022-10-16T05:16:55;101134.75;;;12.06;100.00
59170;BME280;52474;52.236;5.114;2022-10-16T05:19:21;101147.63;;;12.10;100.00
59170;BME280;52474;52.236;5.114;2022-10-16T05:21:47;101132.75;;;11.98;100.00
59170;BME280;52474;52.236;5.114;2022-10-16T05:24:12;101141.47;;;12.10;100.00
59170;BME280;52474;52.236;5.114;2022-10-16T05:26:38;101151.00;;;12.12;100.00
59170;BME280;52474;52.236;5.114;2022-10-16T05:29:04;101157.28;;;12.11;100.00
59170;BME280;52474;52.236;5.114;2022-10-16T05:31:30;101154.88;;;12.08;100.00
59170;BME280;52474;52.236;5.114;2022-10-16T05:33:59;101164.53;;;12.09;100.00
59170;BME280;52474;52.236;5.114;2022-10-16T05:36:25;101163.16;;;12.15;100.00
59170;BME280;52474;52.236;5.114;2022-10-16T05:38:51;101167.50;;;12.16;100.00
59170;BME280;52474;52.236;5.114;2022-10-16T05:41:17;101170.00;;;12.17;100.00
59170;BME280;52474;52.236;5.114;2022-10-16T05:43:47;101163.75;;;12.18;100.00
59170;BME280;52474;52.236;5.114;2022-10-16T05:46:14;101168.47;;;12.15;100.00
59170;BME280;52474;52.236;5.114;2022-10-16T05:48:40;101181.19;;;12.11;100.00
59170;BME280;52474;52.236;5.114;2022-10-16T05:51:07;101175.28;;;12.08;100.00
59170;BME280;52474;52.236;5.114;2022-10-16T05:53:35;101168.25;;;11.97;100.00
59170;BME280;52474;52.236;5.114;2022-10-16T05:56:02;101168.38;;;11.95;100.00
59170;BME280;52474;52.236;5.114;2022-10-16T05:58:33;101175.63;;;11.93;100.00
59170;BME280;52474;52.236;5.114;2022-10-16T06:01:03;101204.88;;;12.03;100.00
59170;BME280;52474;52.236;5.114;2022-10-16T06:03:29;101192.81;;;11.89;100.00
59170;BME280;52474;52.236;5.114;2022-10-16T06:05:55;101216.03;;;11.97;100.00
59170;BME280;52474;52.236;5.114;2022-10-16T06:08:22;101212.09;;;11.91;100.00
59170;BME280;52474;52.236;5.114;2022-10-16T06:10:49;101214.16;;;11.88;100.00
59170;BME280;52474;52.236;5.114;2022-10-16T06:13:15;101214.38;;;11.85;100.00
59170;BME280;52474;52.236;5.114;2022-10-16T06:15:42;101198.78;;;11.70;100.00
59170;BME280;52474;52.236;5.114;2022-10-16T06:18:09;101209.34;;;11.81;100.00
59170;BME280;52474;52.236;5.114;2022-10-16T06:20:35;101214.06;;;11.78;100.00
59170;BME280;52474;52.236;5.114;2022-10-16T06:23:02;101186.91;;;11.65;100.00
59170;BME280;52474;52.236;5.114;2022-10-16T06:25:30;101204.81;;;11.72;100.00
59170;BME280;52474;52.236;5.114;2022-10-16T06:27:56;101210.25;;;11.71;100.00
59170;BME280;52474;52.236;5.114;2022-10-16T06:30:22;101222.41;;;11.73;100.00
59170;BME280;52474;52.236;5.114;2022-10-16T06:32:48;101221.00;;;11.69;100.00
59170;BME280;52474;52.236;5.114;2022-10-16T06:35:14;101201.09;;;11.64;100.00
59170;BME280;52474;52.236;5.114;2022-10-16T06:37:39;101211.94;;;11.72;100.00
59170;BME280;52474;52.236;5.114;2022-10-16T06:40:05;101188.66;;;11.54;100.00
59170;BME280;52474;52.236;5.114;2022-10-16T06:42:31;101209.06;;;11.64;100.00
59170;BME280;52474;52.236;5.114;2022-10-16T06:44:58;101225.50;;;11.78;100.00
59170;BME280;52474;52.236;5.114;2022-10-16T06:47:24;101226.22;;;11.80;100.00
59170;BME280;52474;52.236;5.114;2022-10-16T06:49:49;101230.16;;;11.86;100.00
59170;BME280;52474;52.236;5.114;2022-10-16T06:52:15;101230.06;;;11.88;100.00
59170;BME280;52474;52.236;5.114;2022-10-16T06:54:41;101234.28;;;11.90;100.00
59170;BME280;52474;52.236;5.114;2022-10-16T06:57:06;101215.81;;;11.89;100.00
59170;BME280;52474;52.236;5.114;2022-10-16T06:59:33;101244.69;;;12.03;100.00
59170;BME280;52474;52.236;5.114;2022-10-16T07:01:59;101253.09;;;12.08;100.00
59170;BME280;52474;52.236;5.114;2022-10-16T07:04:24;101265.34;;;12.20;100.00
59170;BME280;52474;52.236;5.114;2022-10-16T07:06:50;101268.44;;;12.25;100.00
59170;BME280;52474;52.236;5.114;2022-10-16T07:09:17;101242.03;;;12.24;100.00
59170;BME280;52474;52.236;5.114;2022-10-16T07:11:43;101246.63;;;12.22;100.00
59170;BME280;52474;52.236;5.114;2022-10-16T07:14:17;101281.66;;;12.37;100.00
59170;BME280;52474;52.236;5.114;2022-10-16T07:16:43;101259.13;;;12.31;100.00
59170;BME280;52474;52.236;5.114;2022-10-16T07:19:09;101254.09;;;12.38;100.00
59170;BME280;52474;52.236;5.114;2022-10-16T07:21:37;101284.84;;;12.61;100.00
59170;BME280;52474;52.236;5.114;2022-10-16T07:24:05;101267.44;;;12.48;100.00
59170;BME280;52474;52.236;5.114;2022-10-16T07:26:34;101288.22;;;12.63;100.00
59170;BME280;52474;52.236;5.114;2022-10-16T07:29:00;101275.84;;;12.53;100.00
59170;BME280;52474;52.236;5.114;2022-10-16T07:31:26;101296.34;;;12.72;100.00
59170;BME280;52474;52.236;5.114;2022-10-16T07:33:52;101310.19;;;12.65;100.00
59170;BME280;52474;52.236;5.114;2022-10-16T07:36:20;101287.22;;;12.34;100.00
59170;BME280;52474;52.236;5.114;2022-10-16T07:38:46;101321.81;;;12.43;100.00
59170;BME280;52474;52.236;5.114;2022-10-16T07:41:15;101324.03;;;12.38;100.00
59170;BME280;52474;52.236;5.114;2022-10-16T07:43:49;101328.75;;;12.35;100.00
59170;BME280;52474;52.236;5.114;2022-10-16T07:57:04;101342.47;;;12.61;100.00
59170;BME280;52474;52.236;5.114;2022-10-16T07:59:30;101357.06;;;12.76;100.00
59170;BME280;52474;52.236;5.114;2022-10-16T08:01:56;101356.94;;;12.78;100.00
59170;BME280;52474;52.236;5.114;2022-10-16T08:04:23;101359.06;;;12.84;100.00
59170;BME280;52474;52.236;5.114;2022-10-16T08:06:48;101360.94;;;12.93;100.00
59170;BME280;52474;52.236;5.114;2022-10-16T08:09:15;101346.59;;;12.84;100.00
59170;BME280;52474;52.236;5.114;2022-10-16T08:11:41;101366.41;;;13.01;100.00
59170;BME280;52474;52.236;5.114;2022-10-16T08:14:07;101367.84;;;13.05;100.00
59170;BME280;52474;52.236;5.114;2022-10-16T08:16:32;101375.38;;;13.00;100.00
59170;BME280;52474;52.236;5.114;2022-10-16T08:18:58;101384.97;;;13.22;100.00
59170;BME280;52474;52.236;5.114;2022-10-16T08:21:24;101373.75;;;13.19;100.00
59170;BME280;52474;52.236;5.114;2022-10-16T08:23:50;101382.63;;;13.29;100.00
59170;BME280;52474;52.236;5.114;2022-10-16T08:26:17;101387.28;;;13.37;100.00
59170;BME280;52474;52.236;5.114;2022-10-16T08:28:49;101384.19;;;13.41;100.00
59170;BME280;52474;52.236;5.114;2022-10-16T08:31:16;101389.81;;;13.48;100.00
59170;BME280;52474;52.236;5.114;2022-10-16T08:33:44;101393.34;;;13.58;100.00
59170;BME280;52474;52.236;5.114;2022-10-16T08:36:12;101404.31;;;13.74;100.00
59170;BME280;52474;52.236;5.114;2022-10-16T08:38:38;101395.22;;;13.77;100.00
59170;BME280;52474;52.236;5.114;2022-10-16T08:41:39;101376.00;;;13.64;100.00
59170;BME280;52474;52.236;5.114;2022-10-16T08:44:49;101403.06;;;13.79;100.00
59170;BME280;52474;52.236;5.114;2022-10-16T08:47:26;101407.00;;;13.94;100.00
59170;BME280;52474;52.236;5.114;2022-10-16T08:50:09;101404.22;;;13.95;100.00
59170;BME280;52474;52.236;5.114;2022-10-16T08:52:39;101413.28;;;14.12;100.00
59170;BME280;52474;52.236;5.114;2022-10-16T08:55:06;101407.84;;;13.94;100.00
59170;BME280;52474;52.236;5.114;2022-10-16T08:57:32;101397.31;;;14.12;100.00
59170;BME280;52474;52.236;5.114;2022-10-16T09:00:05;101409.25;;;14.28;100.00
59170;BME280;52474;52.236;5.114;2022-10-16T09:02:38;101421.16;;;14.43;100.00
59170;BME280;52474;52.236;5.114;2022-10-16T09:07:47;101438.66;;;14.85;100.00
59170;BME280;52474;52.236;5.114;2022-10-16T09:10:18;101432.72;;;15.28;100.00
59170;BME280;52474;52.236;5.114;2022-10-16T09:13:03;101433.06;;;15.43;100.00
59170;BME280;52474;52.236;5.114;2022-10-16T09:21:43;101433.16;;;23.26;100.00
59170;BME280;52474;52.236;5.114;2022-10-16T09:24:30;101433.84;;;24.16;100.00
59170;BME280;52474;52.236;5.114;2022-10-16T09:26:56;101428.66;;;24.75;100.00
59170;BME280;52474;52.236;5.114;2022-10-16T09:29:24;101439.66;;;24.93;100.00
59170;BME280;52474;52.236;5.114;2022-10-16T09:31:52;101425.66;;;25.16;100.00
59170;BME280;52474;52.236;5.114;2022-10-16T09:34:42;101445.28;;;26.33;100.00
59170;BME280;52474;52.236;5.114;2022-10-16T09:37:12;101426.78;;;26.24;100.00
59170;BME280;52474;52.236;5.114;2022-10-16T09:39:48;101452.28;;;22.68;100.00
59170;BME280;52474;52.236;5.114;2022-10-16T09:42:23;101451.31;;;22.26;100.00
59170;BME280;52474;52.236;5.114;2022-10-16T09:44:53;101454.47;;;23.63;100.00
59170;BME280;52474;52.236;5.114;2022-10-16T09:47:29;101440.31;;;25.54;100.00
59170;BME280;52474;52.236;5.114;2022-10-16T09:50:02;101430.41;;;27.05;100.00
59170;BME280;52474;52.236;5.114;2022-10-16T09:52:29;101450.97;;;27.01;100.00
59170;BME280;52474;52.236;5.114;2022-10-16T09:57:23;101455.84;;;26.92;100.00
59170;BME280;52474;52.236;5.114;2022-10-16T09:59:54;101453.19;;;28.08;100.00
59170;BME280;52474;52.236;5.114;2022-10-16T10:02:29;101455.72;;;27.60;100.00
59170;BME280;52474;52.236;5.114;2022-10-16T10:04:56;101447.50;;;28.63;100.00
59170;BME280;52474;52.236;5.114;2022-10-16T10:07:27;101452.97;;;26.87;100.00
59170;BME280;52474;52.236;5.114;2022-10-16T10:09:56;101463.13;;;26.98;100.00
59170;BME280;52474;52.236;5.114;2022-10-16T10:12:27;101460.22;;;29.45;100.00
59170;BME280;52474;52.236;5.114;2022-10-16T10:14:56;101468.72;;;27.58;100.00
59170;BME280;52474;52.236;5.114;2022-10-16T10:17:25;101462.66;;;22.65;100.00
59170;BME280;52474;52.236;5.114;2022-10-16T10:20:18;101454.75;;;22.91;100.00
59170;BME280;52474;52.236;5.114;2022-10-16T10:22:46;101460.75;;;24.51;100.00
59170;BME280;52474;52.236;5.114;2022-10-16T10:30:26;101483.00;;;24.33;100.00
59170;BME280;52474;52.236;5.114;2022-10-16T10:35:31;101490.13;;;24.48;100.00
59170;BME280;52474;52.236;5.114;2022-10-16T10:38:37;101491.72;;;22.41;100.00
59170;BME280;52474;52.236;5.114;2022-10-16T10:43:38;101502.22;;;21.78;100.00
59170;BME280;52474;52.236;5.114;2022-10-16T10:46:16;101492.59;;;27.19;100.00
59170;BME280;52474;52.236;5.114;2022-10-16T10:48:54;101484.38;;;29.53;94.78
59170;BME280;52474;52.236;5.114;2022-10-16T10:51:51;101501.88;;;30.09;96.23
59170;BME280;52474;52.236;5.114;2022-10-16T10:54:35;101494.41;;;30.05;87.58
59170;BME280;52474;52.236;5.114;2022-10-16T10:57:13;101495.72;;;28.74;91.80
59170;BME280;52474;52.236;5.114;2022-10-16T11:02:29;101505.88;;;30.18;85.97
59170;BME280;52474;52.236;5.114;2022-10-16T11:09:11;101517.69;;;31.64;78.86
59170;BME280;52474;52.236;5.114;2022-10-16T11:11:43;101493.63;;;31.44;74.38
59170;BME280;52474;52.236;5.114;2022-10-16T11:14:30;101510.00;;;30.04;79.96
59170;BME280;52474;52.236;5.114;2022-10-16T11:17:17;101510.59;;;30.35;76.84
59170;BME280;52474;52.236;5.114;2022-10-16T11:20:04;101518.91;;;31.13;67.99
59170;BME280;52474;52.236;5.114;2022-10-16T11:22:39;101528.22;;;29.87;69.52
59170;BME280;52474;52.236;5.114;2022-10-16T11:25:24;101516.94;;;31.30;72.41
59170;BME280;52474;52.236;5.114;2022-10-16T11:28:09;101528.63;;;31.42;70.04
59170;BME280;52474;52.236;5.114;2022-10-16T11:33:42;101521.75;;;31.01;63.84
59170;BME280;52474;52.236;5.114;2022-10-16T11:36:39;101523.94;;;30.99;64.60
59170;BME280;52474;52.236;5.114;2022-10-16T11:39:26;101528.16;;;31.46;61.38
59170;BME280;52474;52.236;5.114;2022-10-16T11:45:28;101533.47;;;29.88;60.91
59170;BME280;52474;52.236;5.114;2022-10-16T11:48:02;101532.81;;;27.91;69.73
59170;BME280;52474;52.236;5.114;2022-10-16T11:50:38;101525.03;;;29.14;68.04
59170;BME280;52474;52.236;5.114;2022-10-16T11:55:42;101541.88;;;30.61;59.98
59170;BME280;52474;52.236;5.114;2022-10-16T12:01:15;101539.03;;;29.41;64.52
59170;BME280;52474;52.236;5.114;2022-10-16T12:04:05;101549.78;;;31.30;54.15
59170;BME280;52474;52.236;5.114;2022-10-16T12:06:44;101552.59;;;31.52;53.95
59170;BME280;52474;52.236;5.114;2022-10-16T12:09:32;101558.34;;;30.49;60.08
59170;BME280;52474;52.236;5.114;2022-10-16T12:12:00;101548.84;;;31.02;63.72
59170;BME280;52474;52.236;5.114;2022-10-16T12:19:25;101518.09;;;30.28;58.68
59170;BME280;52474;52.236;5.114;2022-10-16T12:21:55;101544.63;;;30.15;61.57
59170;BME280;52474;52.236;5.114;2022-10-16T12:24:42;101555.44;;;29.82;55.62
59170;BME280;52474;52.236;5.114;2022-10-16T12:27:29;101542.69;;;29.11;59.29
59170;BME280;52474;52.236;5.114;2022-10-16T12:30:02;101559.72;;;29.78;57.67
59170;BME280;52474;52.236;5.114;2022-10-16T12:32:36;101559.63;;;30.75;55.09
59170;BME280;52474;52.236;5.114;2022-10-16T12:35:18;101558.78;;;29.72;52.87
59170;BME280;52474;52.236;5.114;2022-10-16T12:37:45;101575.19;;;28.17;68.65
59170;BME280;52474;52.236;5.114;2022-10-16T12:40:31;101564.91;;;24.95;82.39
59170;BME280;52474;52.236;5.114;2022-10-16T12:42:58;101564.56;;;23.34;100.00
59170;BME280;52474;52.236;5.114;2022-10-16T12:45:29;101557.38;;;22.48;100.00
59170;BME280;52474;52.236;5.114;2022-10-16T12:47:57;101569.19;;;22.11;100.00
59170;BME280;52474;52.236;5.114;2022-10-16T12:50:30;101566.50;;;21.07;100.00
59170;BME280;52474;52.236;5.114;2022-10-16T12:52:57;101575.16;;;20.48;100.00
59170;BME280;52474;52.236;5.114;2022-10-16T12:55:24;101583.91;;;20.19;100.00
59170;BME280;52474;52.236;5.114;2022-10-16T13:01:11;101574.00;;;19.64;100.00
59170;BME280;52474;52.236;5.114;2022-10-16T13:07:25;101585.28;;;19.76;100.00
59170;BME280;52474;52.236;5.114;2022-10-16T13:30:34;101601.31;;;18.12;100.00
59170;BME280;52474;52.236;5.114;2022-10-16T13:33:05;101607.78;;;18.01;100.00
59170;BME280;52474;52.236;5.114;2022-10-16T13:35:34;101611.84;;;18.05;100.00
59170;BME280;52474;52.236;5.114;2022-10-16T13:38:13;101621.72;;;18.05;100.00
59170;BME280;52474;52.236;5.114;2022-10-16T13:40:50;101616.09;;;18.24;100.00
59170;BME280;52474;52.236;5.114;2022-10-16T13:43:22;101603.66;;;18.07;100.00
59170;BME280;52474;52.236;5.114;2022-10-16T13:46:15;101576.81;;;17.72;100.00
59170;BME280;52474;52.236;5.114;2022-10-16T13:48:40;101630.94;;;18.02;100.00
59170;BME280;52474;52.236;5.114;2022-10-16T13:51:16;101619.59;;;17.82;100.00
59170;BME280;52474;52.236;5.114;2022-10-16T13:53:43;101624.47;;;17.87;100.00
59170;BME280;52474;52.236;5.114;2022-10-16T13:56:15;101624.19;;;17.98;100.00
59170;BME280;52474;52.236;5.114;2022-10-16T13:58:45;101617.47;;;17.94;100.00
59170;BME280;52474;52.236;5.114;2022-10-16T14:01:23;101622.31;;;17.90;100.00
59170;BME280;52474;52.236;5.114;2022-10-16T14:03:51;101620.47;;;17.91;100.00
59170;BME280;52474;52.236;5.114;2022-10-16T14:06:19;101613.25;;;17.83;100.00
59170;BME280;52474;52.236;5.114;2022-10-16T14:09:02;101626.66;;;17.91;100.00
59170;BME280;52474;52.236;5.114;2022-10-16T14:11:30;101636.41;;;17.92;100.00
59170;BME280;52474;52.236;5.114;2022-10-16T14:13:57;101600.31;;;17.52;100.00
59170;BME280;52474;52.236;5.114;2022-10-16T14:16:25;101632.31;;;17.62;100.00
59170;BME280;52474;52.236;5.114;2022-10-16T14:19:01;101629.81;;;17.34;100.00
59170;BME280;52474;52.236;5.114;2022-10-16T14:21:29;101627.31;;;17.33;100.00
59170;BME280;52474;52.236;5.114;2022-10-16T14:23:55;101608.81;;;17.22;100.00
59170;BME280;52474;52.236;5.114;2022-10-16T14:26:27;101615.31;;;17.19;100.00
59170;BME280;52474;52.236;5.114;2022-10-16T14:29:12;101619.59;;;17.12;100.00
59170;BME280;52474;52.236;5.114;2022-10-16T14:31:38;101618.59;;;17.31;100.00
59170;BME280;52474;52.236;5.114;2022-10-16T14:34:33;101618.75;;;17.11;100.00